Time;durP1;ratioP1;P1;durP2;ratioP2;P2;SDS_P1;SDS_P2;PMS_P1;PMS_P2;Temp;Humidity;BMP_temperature;BMP_pressure;BME280_temperature;BME280_humidity;BME280_pressure;Samples;Min_cycle;Max_cycle;Signal;HPM_P1;HPM_P2
2023/12/08 00:01:29;;;;;;;6.60;4.55;;;;;;;23.40;30.79;98750.25;4993090;28;20026;-45
2023/12/08 00:03:54;;;;;;;6.60;4.65;;;;;;;23.42;30.73;98744.97;4990902;28;20019;-46
2023/12/08 00:06:20;;;;;;;7.28;4.90;;;;;;;23.42;30.78;98761.50;4990722;28;20036;-46
2023/12/08 00:32:17;;;;;;;7.10;4.60;;;;;;;23.39;30.80;98745.97;4979709;28;20514;-48
2023/12/08 00:34:45;;;;;;;5.95;3.90;;;;;;;23.38;31.00;98741.75;4985591;28;20030;-47
2023/12/08 00:37:10;;;;;;;7.22;4.22;;;;;;;23.41;30.71;98737.22;4986863;28;20032;-47
2023/12/08 00:39:35;;;;;;;6.30;4.15;;;;;;;23.39;30.77;98729.47;4994849;28;20397;-47
2023/12/08 00:42:01;;;;;;;6.38;4.40;;;;;;;23.39;30.61;98718.44;4988232;28;20034;-49
2023/12/08 00:44:26;;;;;;;6.40;4.15;;;;;;;23.35;30.78;98717.97;4986964;28;20469;-45
2023/12/08 00:46:52;;;;;;;6.07;4.28;;;;;;;23.36;30.83;98730.50;4992376;28;20045;-45
2023/12/08 00:49:18;;;;;;;6.00;3.88;;;;;;;23.33;30.79;98739.75;4990268;28;20744;-46
2023/12/08 00:51:43;;;;;;;6.30;4.18;;;;;;;23.33;30.85;98750.78;4993032;28;20034;-48
2023/12/08 00:54:08;;;;;;;6.00;4.03;;;;;;;23.35;30.83;98751.03;4998269;28;20565;-46
2023/12/08 00:56:34;;;;;;;6.57;4.30;;;;;;;23.34;30.83;98741.25;4989157;28;20026;-46
2023/12/08 00:58:59;;;;;;;5.80;4.05;;;;;;;23.36;30.91;98733.25;4986896;28;20034;-45
2023/12/08 01:01:24;;;;;;;6.20;4.03;;;;;;;23.34;30.85;98733.75;4991696;28;20482;-46
2023/12/08 01:03:50;;;;;;;6.53;3.90;;;;;;;23.32;30.90;98730.00;4991635;28;20072;-46
2023/12/08 01:06:16;;;;;;;6.05;4.00;;;;;;;23.31;31.05;98734.00;4997647;28;20052;-49
2023/12/08 01:08:41;;;;;;;6.45;4.10;;;;;;;23.33;30.93;98731.50;4989850;28;20035;-46
2023/12/08 01:11:08;;;;;;;5.97;3.95;;;;;;;23.31;30.85;98725.75;4990738;28;20026;-45
2023/12/08 01:13:33;;;;;;;6.10;3.92;;;;;;;23.29;30.92;98734.50;4992143;28;20026;-45
2023/12/08 01:15:59;;;;;;;6.20;4.03;;;;;;;23.32;30.91;98724.50;5005180;28;20038;-45
2023/12/08 01:18:24;;;;;;;5.68;3.60;;;;;;;23.30;30.94;98724.25;5005013;28;20478;-45
2023/12/08 01:20:51;;;;;;;5.90;3.95;;;;;;;23.28;30.96;98735.00;4985855;28;20104;-46
2023/12/08 01:23:17;;;;;;;6.07;3.78;;;;;;;23.31;30.84;98723.00;4988480;28;20025;-45
2023/12/08 01:25:42;;;;;;;5.72;3.75;;;;;;;23.29;31.04;98736.50;4996012;28;20108;-48
2023/12/08 01:28:07;;;;;;;5.80;3.58;;;;;;;23.29;30.88;98739.25;4991047;28;20474;-46
2023/12/08 01:30:33;;;;;;;5.45;3.60;;;;;;;23.29;30.93;98748.28;4990786;28;20029;-45
2023/12/08 01:32:58;;;;;;;5.30;3.22;;;;;;;23.31;30.95;98751.28;4984714;28;20034;-46
2023/12/08 01:35:23;;;;;;;5.90;3.50;;;;;;;23.31;30.87;98745.00;4986228;28;20498;-45
2023/12/08 01:37:49;;;;;;;5.53;3.20;;;;;;;23.30;30.90;98743.50;4995009;28;20022;-47
2023/12/08 01:40:15;;;;;;;5.30;3.30;;;;;;;23.29;30.94;98731.00;4997198;28;20034;-45
2023/12/08 01:42:40;;;;;;;5.53;3.53;;;;;;;23.30;30.96;98743.50;4993667;28;20045;-50
2023/12/08 01:45:06;;;;;;;5.53;3.53;;;;;;;23.31;30.98;98750.53;4987745;28;20023;-46
2023/12/08 01:47:32;;;;;;;5.60;3.63;;;;;;;23.30;30.88;98749.03;4984794;28;20022;-45
2023/12/08 01:49:57;;;;;;;5.60;3.70;;;;;;;23.33;30.89;98737.75;4993598;28;20077;-46
2023/12/08 01:52:23;;;;;;;5.50;3.50;;;;;;;23.29;30.91;98736.50;4991784;28;20022;-45
2023/12/08 01:54:49;;;;;;;5.20;3.10;;;;;;;23.26;30.95;98716.22;4995054;28;20030;-45
2023/12/08 01:57:15;;;;;;;5.25;3.42;;;;;;;23.27;30.88;98706.72;4989179;28;20030;-45
2023/12/08 01:59:40;;;;;;;5.45;3.40;;;;;;;23.29;30.98;98704.22;4990703;28;20038;-45
2023/12/08 02:02:05;;;;;;;5.35;3.50;;;;;;;23.24;31.01;98691.22;4990666;28;20065;-45
2023/12/08 02:04:31;;;;;;;5.30;3.30;;;;;;;23.25;31.00;98680.94;4992843;28;20041;-45
2023/12/08 02:06:57;;;;;;;5.60;3.22;;;;;;;23.25;30.92;98702.97;4991918;28;20026;-45
2023/12/08 02:09:23;;;;;;;5.45;3.35;;;;;;;23.25;30.96;98702.97;4992300;28;20386;-45
2023/12/08 02:11:48;;;;;;;5.72;3.33;;;;;;;23.25;30.92;98705.72;4988459;28;20061;-46
2023/12/08 02:14:15;;;;;;;4.97;3.13;;;;;;;23.27;31.04;98716.97;4997331;28;20447;-45
2023/12/08 02:16:52;;;;;;;5.15;3.15;;;;;;;23.26;30.91;98727.25;4993300;28;20032;-46
2023/12/08 02:19:18;;;;;;;5.43;3.17;;;;;;;23.30;30.94;98743.50;4994208;28;20045;-47
2023/12/08 02:21:43;;;;;;;5.10;2.88;;;;;;;23.28;30.94;98752.28;4989948;28;20033;-47
2023/12/08 02:24:08;;;;;;;5.43;3.35;;;;;;;23.29;30.85;98747.53;4970396;28;20018;-46
2023/12/08 02:26:34;;;;;;;5.55;3.10;;;;;;;23.26;30.91;98726.50;4996049;28;20071;-46
2023/12/08 02:28:59;;;;;;;5.05;2.90;;;;;;;23.26;31.01;98743.75;5000095;28;20022;-46
2023/12/08 02:31:32;;;;;;;5.30;3.08;;;;;;;23.25;31.11;98725.75;4996611;28;20018;-47
2023/12/08 02:33:58;;;;;;;5.22;3.20;;;;;;;23.26;30.92;98683.19;4960232;28;20030;-46
2023/12/08 02:36:23;;;;;;;5.15;3.03;;;;;;;23.28;30.85;98649.66;4975285;28;20071;-46
2023/12/08 02:38:48;;;;;;;5.43;3.10;;;;;;;23.29;30.87;98671.19;4989427;28;20033;-46
2023/12/08 02:41:14;;;;;;;5.20;3.08;;;;;;;23.24;30.89;98723.50;4992523;28;20027;-46
2023/12/08 02:43:39;;;;;;;5.07;2.90;;;;;;;23.28;30.88;98757.78;4993491;28;20026;-46
2023/12/08 02:46:04;;;;;;;5.20;2.83;;;;;;;23.28;30.86;98757.03;4988355;28;20038;-46
2023/12/08 02:48:30;;;;;;;5.13;3.00;;;;;;;23.27;30.78;98750.03;4985480;28;20425;-46
2023/12/08 02:50:55;;;;;;;5.10;3.00;;;;;;;23.26;30.92;98743.00;4986948;28;20040;-47
2023/12/08 02:53:20;;;;;;;5.20;2.83;;;;;;;23.26;31.01;98741.00;4994293;28;20022;-46
2023/12/08 02:55:46;;;;;;;4.88;2.90;;;;;;;23.24;31.01;98743.50;4993361;28;20026;-48
2023/12/08 02:58:11;;;;;;;5.28;2.95;;;;;;;23.21;30.97;98738.25;4992160;28;20030;-47
2023/12/08 03:00:36;;;;;;;4.85;2.80;;;;;;;23.25;30.96;98742.25;4992256;28;20505;-46
2023/12/08 03:03:02;;;;;;;5.70;2.70;;;;;;;23.24;31.01;98729.00;4987671;28;20034;-46
2023/12/08 03:05:27;;;;;;;5.10;2.70;;;;;;;23.21;31.09;98741.00;4992997;28;20070;-46
2023/12/08 03:07:53;;;;;;;4.85;2.67;;;;;;;23.23;30.93;98755.03;4996407;28;20041;-46
2023/12/08 03:10:18;;;;;;;4.80;2.70;;;;;;;23.22;31.06;98765.28;4994313;28;20014;-46
2023/12/08 03:12:43;;;;;;;4.68;2.65;;;;;;;23.25;30.95;98774.56;4989766;28;20030;-46
2023/12/08 03:15:09;;;;;;;4.30;2.60;;;;;;;23.26;30.94;98756.78;4987450;28;20849;-46
2023/12/08 03:17:34;;;;;;;5.00;2.58;;;;;;;23.23;31.01;98741.25;4991767;28;20026;-46
2023/12/08 03:19:59;;;;;;;5.00;2.80;;;;;;;23.25;31.02;98744.25;4994869;28;20028;-46
2023/12/08 03:22:25;;;;;;;4.90;2.80;;;;;;;23.24;30.99;98737.25;4995396;28;20025;-46
2023/12/08 03:24:50;;;;;;;4.70;2.70;;;;;;;23.20;31.01;98734.75;4989029;28;20105;-46
2023/12/08 03:27:15;;;;;;;4.72;2.50;;;;;;;23.19;31.09;98736.00;4990719;28;20358;-46
2023/12/08 03:29:41;;;;;;;4.60;2.65;;;;;;;23.22;31.11;98721.25;4993063;28;20025;-46
2023/12/08 03:32:07;;;;;;;4.80;2.90;;;;;;;23.23;31.11;98713.72;4991172;28;20026;-48
2023/12/08 03:34:32;;;;;;;4.55;2.40;;;;;;;23.27;31.14;98697.72;4997611;28;20029;-47
2023/12/08 03:36:58;;;;;;;4.80;2.58;;;;;;;23.25;31.08;98691.97;4990917;28;20109;-47
2023/12/08 03:39:23;;;;;;;4.40;2.60;;;;;;;23.30;30.94;98688.44;4987725;28;20022;-47
2023/12/08 03:41:48;;;;;;;4.70;2.70;;;;;;;23.29;31.06;98692.44;4994700;28;20595;-47
2023/12/08 03:44:14;;;;;;;4.40;2.28;;;;;;;23.30;31.07;98677.44;4998032;28;20026;-46
2023/12/08 03:46:42;;;;;;;4.40;2.30;;;;;;;23.36;31.08;98683.69;4992119;28;20034;-46
2023/12/08 03:49:07;;;;;;;4.75;2.40;;;;;;;23.33;31.08;98670.91;4991005;28;20109;-45
2023/12/08 03:51:33;;;;;;;4.57;2.40;;;;;;;23.36;30.98;98658.91;4991470;28;20032;-45
2023/12/08 03:53:58;;;;;;;5.00;2.70;;;;;;;23.36;31.05;98647.88;5000071;28;20030;-47
2023/12/08 03:56:23;;;;;;;4.40;2.30;;;;;;;23.39;31.02;98633.06;4993932;28;20031;-45
2023/12/08 03:58:49;;;;;;;4.40;2.40;;;;;;;23.40;31.00;98637.34;4985385;28;20029;-46
2023/12/08 04:01:18;;;;;;;4.20;2.30;;;;;;;23.44;30.94;98632.31;4983640;28;20503;-47
2023/12/08 04:03:43;;;;;;;4.85;2.55;;;;;;;23.45;30.98;98627.56;4986766;28;20022;-46
2023/12/08 04:06:08;;;;;;;4.18;2.10;;;;;;;23.47;30.90;98633.31;4997588;28;20030;-45
2023/12/08 04:08:34;;;;;;;4.43;2.25;;;;;;;23.49;30.92;98619.78;4991542;28;20481;-46
2023/12/08 04:10:59;;;;;;;4.45;2.38;;;;;;;23.47;30.93;98620.28;4992497;28;20026;-45
2023/12/08 04:13:24;;;;;;;4.63;2.30;;;;;;;23.51;30.89;98620.78;4986157;28;20030;-45
2023/12/08 04:15:50;;;;;;;4.30;2.15;;;;;;;23.51;30.84;98620.78;4987231;28;20040;-47
2023/12/08 04:18:15;;;;;;;4.03;2.08;;;;;;;23.54;30.83;98630.81;4989519;28;20022;-45
2023/12/08 04:20:41;;;;;;;4.10;2.20;;;;;;;23.57;30.90;98618.03;4991456;28;20026;-47
2023/12/08 04:23:06;;;;;;;4.63;2.30;;;;;;;23.58;30.85;98614.75;4992341;28;20452;-45
2023/12/08 04:25:31;;;;;;;4.20;2.20;;;;;;;23.59;30.82;98616.25;4990904;28;20033;-45
2023/12/08 04:27:57;;;;;;;4.40;2.28;;;;;;;23.58;30.79;98623.00;4991296;28;20030;-46
2023/12/08 04:30:22;;;;;;;3.88;1.95;;;;;;;23.60;30.85;98617.75;4990523;28;20482;-45
2023/12/08 04:32:47;;;;;;;4.07;2.20;;;;;;;23.58;30.92;98625.75;4986975;28;20034;-45
2023/12/08 04:35:13;;;;;;;4.68;2.30;;;;;;;23.61;30.84;98626.75;4990392;28;20040;-46
2023/12/08 04:37:38;;;;;;;4.22;2.20;;;;;;;23.61;30.92;98624.75;4988170;28;20033;-45
2023/12/08 04:40:04;;;;;;;3.92;1.92;;;;;;;23.62;30.84;98634.50;4987621;28;20038;-45
2023/12/08 04:42:29;;;;;;;3.83;1.95;;;;;;;23.64;30.83;98636.75;4989452;28;20031;-46
2023/12/08 04:44:54;;;;;;;3.80;2.05;;;;;;;23.63;30.72;98643.53;4988648;28;20039;-45
2023/12/08 04:47:20;;;;;;;4.13;2.15;;;;;;;23.62;30.80;98645.53;4991364;28;20034;-46
2023/12/08 04:49:45;;;;;;;4.00;2.00;;;;;;;23.62;30.85;98639.28;4992217;28;20107;-48
2023/12/08 04:52:10;;;;;;;5.13;2.08;;;;;;;23.65;30.89;98636.25;4986675;28;20030;-45
2023/12/08 04:54:36;;;;;;;4.00;2.00;;;;;;;23.65;30.86;98635.50;4990048;28;20482;-45
2023/12/08 04:57:02;;;;;;;3.58;1.80;;;;;;;23.64;30.81;98643.03;4989523;28;20043;-47
2023/12/08 04:59:27;;;;;;;4.15;1.80;;;;;;;23.62;30.83;98645.53;4990988;28;20121;-47
2023/12/08 05:01:53;;;;;;;4.20;1.90;;;;;;;23.52;30.87;98627.81;4991858;28;20042;-45
2023/12/08 05:04:18;;;;;;;4.00;2.10;;;;;;;23.52;30.84;98625.06;4989903;28;20076;-46
2023/12/08 05:06:44;;;;;;;3.88;1.90;;;;;;;23.54;30.93;98630.06;4989023;28;20498;-46
2023/12/08 05:09:10;;;;;;;3.95;1.90;;;;;;;23.51;30.95;98622.78;4987754;28;20386;-45
2023/12/08 05:11:36;;;;;;;3.53;1.70;;;;;;;23.51;30.91;98628.28;4996130;28;20425;-47
2023/12/08 05:14:02;;;;;;;4.10;2.00;;;;;;;23.54;30.89;98635.56;4995660;28;20088;-47
2023/12/08 05:16:28;;;;;;;3.72;1.73;;;;;;;23.53;30.92;98637.56;4994064;28;20030;-47
2023/12/08 05:18:53;;;;;;;3.85;1.77;;;;;;;23.57;30.88;98643.56;4991386;28;20161;-45
2023/12/08 05:21:19;;;;;;;4.20;1.80;;;;;;;23.57;30.96;98637.31;4981550;28;20027;-46
2023/12/08 05:23:44;;;;;;;3.83;1.83;;;;;;;23.56;30.97;98647.59;4985403;28;20030;-49
2023/12/08 05:26:09;;;;;;;3.50;1.60;;;;;;;23.58;30.95;98642.28;4990161;28;20042;-45
2023/12/08 05:28:35;;;;;;;3.33;1.67;;;;;;;23.61;30.91;98641.28;4987849;28;20544;-45
2023/12/08 05:31:00;;;;;;;3.95;1.90;;;;;;;23.60;30.89;98644.53;4985867;28;20026;-45
2023/12/08 05:33:25;;;;;;;3.17;1.60;;;;;;;23.61;31.00;98649.53;4983881;28;20658;-47
2023/12/08 05:35:51;;;;;;;4.82;1.92;;;;;;;23.59;30.94;98649.31;4994610;28;20040;-46
2023/12/08 05:38:16;;;;;;;4.13;1.58;;;;;;;23.61;31.03;98655.06;4997588;28;20474;-45
2023/12/08 05:40:41;;;;;;;3.22;1.60;;;;;;;23.59;31.09;98654.81;4994818;28;20025;-45
2023/12/08 05:43:07;;;;;;;3.65;1.80;;;;;;;23.62;31.01;98659.31;4989794;28;20149;-46
2023/12/08 05:45:32;;;;;;;3.85;1.80;;;;;;;23.61;31.21;98660.56;4986557;28;20018;-45
2023/12/08 05:47:58;;;;;;;3.90;1.90;;;;;;;23.64;31.11;98659.56;4994740;28;20083;-46
2023/12/08 05:50:23;;;;;;;4.85;1.75;;;;;;;23.66;31.11;98659.78;4995092;28;20030;-45
2023/12/08 05:52:48;;;;;;;3.55;1.60;;;;;;;23.67;31.17;98661.28;4993850;28;20022;-45
2023/12/08 05:55:14;;;;;;;3.42;1.67;;;;;;;23.67;31.16;98660.53;4989814;28;20388;-45
2023/12/08 05:57:40;;;;;;;3.80;1.75;;;;;;;23.69;31.08;98653.28;4990281;28;20034;-45
2023/12/08 06:00:06;;;;;;;4.38;1.80;;;;;;;23.69;31.11;98653.28;4993287;28;20030;-49
2023/12/08 06:02:31;;;;;;;4.22;1.80;;;;;;;23.75;31.16;98649.75;4992328;28;20097;-47
2023/12/08 06:04:57;;;;;;;3.53;1.40;;;;;;;23.77;31.14;98653.50;4994873;28;20026;-47
2023/12/08 06:07:22;;;;;;;6.22;1.50;;;;;;;23.78;31.24;98657.00;4995055;28;20030;-47
2023/12/08 06:09:47;;;;;;;5.05;1.55;;;;;;;23.83;31.32;98650.69;4991617;28;20495;-45
2023/12/08 06:12:13;;;;;;;4.20;1.70;;;;;;;23.83;31.19;98662.47;4995012;28;20079;-46
2023/12/08 06:14:38;;;;;;;3.53;1.58;;;;;;;23.81;31.29;98664.97;4995038;28;20027;-46
2023/12/08 06:17:04;;;;;;;3.97;1.60;;;;;;;23.80;31.42;98671.00;4994052;28;20105;-45
2023/12/08 06:19:30;;;;;;;3.50;1.33;;;;;;;23.78;31.42;98676.28;4987149;28;20049;-46
2023/12/08 06:21:55;;;;;;;3.65;1.50;;;;;;;23.74;31.73;98679.31;4991287;28;20109;-45
2023/12/08 06:24:21;;;;;;;3.75;1.50;;;;;;;23.89;31.52;98679.72;4989346;28;20037;-52
2023/12/08 06:26:47;;;;;;;4.88;1.58;;;;;;;23.93;31.98;98682.22;4997485;28;20079;-41
2023/12/08 06:29:12;;;;;;;7.95;1.60;;;;;;;23.94;31.94;98689.22;4997469;28;20033;-44
2023/12/08 06:31:43;;;;;;;4.25;1.30;;;;;;;24.03;32.09;98688.91;4819496;28;10001094;-46
2023/12/08 06:34:09;;;;;;;6.80;1.50;;;;;;;24.06;32.41;98687.91;4987868;28;20091;-46
2023/12/08 06:36:34;;;;;;;4.38;1.42;;;;;;;24.00;32.39;98676.91;4992936;28;20019;-44
2023/12/08 06:39:00;;;;;;;4.10;1.63;;;;;;;24.00;32.24;98687.19;4997290;28;20466;-46
2023/12/08 06:41:25;;;;;;;3.97;1.40;;;;;;;24.05;32.19;98689.16;4993189;28;20037;-44
2023/12/08 06:43:51;;;;;;;4.53;1.63;;;;;;;24.04;32.18;98682.16;4991079;28;20018;-45
2023/12/08 06:46:16;;;;;;;5.22;1.80;;;;;;;24.05;32.34;98689.16;4990582;28;20056;-46
2023/12/08 06:48:41;;;;;;;3.78;1.60;;;;;;;24.10;32.33;98685.63;4994051;28;20034;-47
2023/12/08 06:51:07;;;;;;;4.88;1.63;;;;;;;24.12;32.15;98694.16;4993154;28;20032;-47
2023/12/08 06:53:32;;;;;;;3.60;1.63;;;;;;;24.09;32.28;98697.16;4991432;28;20031;-45
2023/12/08 06:55:58;;;;;;;4.72;1.60;;;;;;;24.22;32.40;98700.09;4990268;28;20042;-46
2023/12/08 06:58:23;;;;;;;8.23;1.85;;;;;;;24.14;32.41;98696.41;4987996;28;20034;-47
2023/12/08 07:00:48;;;;;;;4.80;1.58;;;;;;;24.12;31.91;98688.63;4992219;28;20040;-46
2023/12/08 07:03:14;;;;;;;4.32;1.55;;;;;;;24.15;32.11;98693.13;4990745;28;20022;-43
2023/12/08 07:05:39;;;;;;;5.25;1.95;;;;;;;24.11;32.23;98691.91;4989441;28;20028;-45
2023/12/08 07:08:05;;;;;;;4.43;1.80;;;;;;;24.19;32.04;98687.31;4992063;28;20196;-42
2023/12/08 07:10:30;;;;;;;3.90;1.88;;;;;;;24.22;31.84;98697.31;4986606;28;20026;-46
2023/12/08 07:12:55;;;;;;;4.97;1.77;;;;;;;24.23;31.95;98691.31;4988741;28;20038;-43
2023/12/08 07:15:21;;;;;;;4.60;1.90;;;;;;;24.23;31.97;98688.53;4990502;28;20026;-45
2023/12/08 07:17:46;;;;;;;5.85;1.90;;;;;;;24.21;31.98;98690.31;4993741;28;20031;-45
2023/12/08 07:20:12;;;;;;;4.53;1.90;;;;;;;24.23;32.04;98694.06;4992314;28;20045;-47
2023/12/08 07:22:37;;;;;;;3.92;1.80;;;;;;;24.20;32.13;98697.84;4989183;28;20038;-45
2023/12/08 07:25:04;;;;;;;5.00;2.00;;;;;;;24.22;32.23;98700.84;4988238;28;20026;-45
2023/12/08 07:27:29;;;;;;;4.57;2.05;;;;;;;24.26;32.17;98695.84;4990847;28;20105;-44
2023/12/08 07:29:55;;;;;;;4.60;1.92;;;;;;;24.22;32.40;98689.06;4989325;28;20405;-42
2023/12/08 07:32:20;;;;;;;6.60;2.22;;;;;;;24.22;32.46;98692.56;4991774;28;20037;-47
2023/12/08 07:34:46;;;;;;;4.60;1.83;;;;;;;24.21;32.53;98693.81;4987070;28;20031;-46
2023/12/08 07:37:11;;;;;;;4.65;2.00;;;;;;;24.20;32.48;98684.06;4987250;28;20038;-51
2023/12/08 07:39:36;;;;;;;6.05;1.95;;;;;;;24.21;32.53;98682.78;4990525;28;20032;-49
2023/12/08 07:42:02;;;;;;;6.70;2.05;;;;;;;24.27;32.59;98694.56;4996465;28;20031;-41
2023/12/08 07:44:28;;;;;;;4.32;2.05;;;;;;;24.34;32.51;98691.28;4991003;28;20014;-47
2023/12/08 07:46:53;;;;;;;4.20;2.00;;;;;;;24.26;32.71;98692.31;4988977;28;20019;-48
2023/12/08 07:49:19;;;;;;;5.05;2.20;;;;;;;24.22;32.77;98687.06;4988827;28;20026;-44
2023/12/08 07:51:45;;;;;;;7.72;2.33;;;;;;;24.18;32.64;98691.38;4991237;28;20058;-48
2023/12/08 07:54:10;;;;;;;4.68;2.00;;;;;;;24.25;32.34;98688.81;4996640;28;20116;-44
2023/12/08 07:56:36;;;;;;;4.90;2.00;;;;;;;24.20;32.51;98697.84;4995209;28;20069;-47
2023/12/08 07:59:01;;;;;;;4.90;1.80;;;;;;;24.29;32.69;98694.81;4993530;28;20045;-44
2023/12/08 08:01:26;;;;;;;5.18;2.30;;;;;;;24.32;32.71;98704.06;4986811;28;20022;-46
2023/12/08 08:03:52;;;;;;;5.53;1.83;;;;;;;24.36;32.54;98707.31;4989650;28;20392;-42
2023/12/08 08:06:17;;;;;;;5.38;2.00;;;;;;;24.46;32.71;98711.25;4991788;28;20031;-42
2023/12/08 08:08:43;;;;;;;5.10;2.25;;;;;;;24.37;32.84;98711.56;4992729;28;20084;-42
2023/12/08 08:11:09;;;;;;;4.90;2.20;;;;;;;24.29;32.86;98714.13;4986884;28;20114;-42
2023/12/08 08:13:34;;;;;;;4.78;1.85;;;;;;;24.29;32.73;98711.34;4983728;28;20642;-41
2023/12/08 08:16:00;;;;;;;5.95;2.10;;;;;;;24.27;32.85;98710.38;4994175;28;20040;-43
2023/12/08 08:18:28;;;;;;;4.13;2.00;;;;;;;24.22;32.76;98711.13;4993057;28;20030;-42
2023/12/08 08:20:54;;;;;;;5.45;1.95;;;;;;;24.28;32.78;98712.63;4994130;28;20018;-42
2023/12/08 08:23:19;;;;;;;5.68;1.90;;;;;;;24.24;32.92;98703.13;4990237;28;20113;-44
2023/12/08 08:25:44;;;;;;;3.80;1.80;;;;;;;24.27;32.94;98708.34;4984787;28;20459;-43
2023/12/08 08:28:10;;;;;;;5.32;1.80;;;;;;;24.25;32.92;98705.38;4989371;28;20036;-44
2023/12/08 08:30:35;;;;;;;4.40;1.80;;;;;;;24.24;32.98;98698.34;4992079;28;20596;-41
2023/12/08 08:33:01;;;;;;;4.10;1.70;;;;;;;24.28;33.15;98690.56;4979233;28;20030;-43
2023/12/08 08:35:26;;;;;;;4.10;1.80;;;;;;;24.26;33.13;98682.03;4990030;28;20026;-43
2023/12/08 08:37:51;;;;;;;3.60;1.65;;;;;;;24.28;33.11;98696.06;4989632;28;20076;-42
2023/12/08 08:40:17;;;;;;;4.57;1.80;;;;;;;24.27;33.19;98700.09;4989983;28;20026;-42
2023/12/08 08:42:42;;;;;;;3.60;1.75;;;;;;;24.25;33.25;98697.09;4988316;28;20425;-43
2023/12/08 08:45:08;;;;;;;4.75;1.80;;;;;;;24.28;33.28;98709.84;4997610;28;20022;-42
2023/12/08 08:47:33;;;;;;;3.63;1.58;;;;;;;24.36;34.05;98721.84;4996320;28;20022;-44
2023/12/08 08:49:58;;;;;;;4.57;1.60;;;;;;;24.40;34.12;98735.34;4987859;28;20040;-43
2023/12/08 08:52:24;;;;;;;4.90;1.52;;;;;;;24.35;34.15;98720.34;4992924;28;20088;-43
2023/12/08 08:54:49;;;;;;;4.00;1.38;;;;;;;24.33;34.21;98730.41;4990957;28;20031;-43
2023/12/08 08:57:15;;;;;;;5.03;1.67;;;;;;;24.35;34.33;98730.63;4988609;28;20022;-44
2023/12/08 08:59:41;;;;;;;4.13;1.70;;;;;;;24.32;34.39;98735.16;4994216;28;20026;-44
2023/12/08 09:02:06;;;;;;;6.55;1.60;;;;;;;24.43;34.64;98731.56;4986084;28;20149;-46
2023/12/08 09:04:32;;;;;;;4.05;1.52;;;;;;;24.46;34.80;98732.56;4987838;28;20030;-48
2023/12/08 09:06:57;;;;;;;9.57;1.80;;;;;;;24.37;34.68;98731.63;4993878;28;20029;-44
2023/12/08 09:09:23;;;;;;;4.05;1.40;;;;;;;24.38;34.96;98733.09;5000758;28;20061;-42
2023/12/08 09:11:48;;;;;;;4.38;1.55;;;;;;;24.39;35.12;98734.59;4998768;28;20046;-44
2023/12/08 09:14:14;;;;;;;3.55;1.40;;;;;;;24.38;35.13;98744.13;4991330;28;20023;-45
2023/12/08 09:16:39;;;;;;;6.30;1.80;;;;;;;24.38;35.97;98746.13;4997503;28;20022;-43
2023/12/08 09:19:05;;;;;;;3.55;1.50;;;;;;;24.42;35.09;98749.38;4996655;28;20083;-43
2023/12/08 09:21:31;;;;;;;6.10;1.90;;;;;;;24.38;35.20;98749.66;5004826;28;20044;-43
2023/12/08 09:23:56;;;;;;;5.85;1.60;;;;;;;24.30;35.07;98748.72;4991703;28;20121;-43
2023/12/08 09:26:21;;;;;;;6.57;1.90;;;;;;;24.35;35.20;98747.94;4986099;28;20130;-41
2023/12/08 09:28:47;;;;;;;7.80;1.60;;;;;;;24.42;35.08;98745.88;4995351;28;20033;-47
2023/12/08 09:31:12;;;;;;;4.70;1.70;;;;;;;24.41;35.02;98752.66;5001066;28;20433;-43
2023/12/08 09:33:39;;;;;;;6.88;1.70;;;;;;;24.39;35.19;98753.91;4998760;28;20038;-44
2023/12/08 09:36:05;;;;;;;4.60;1.88;;;;;;;24.53;35.07;98762.38;4991344;28;20022;-42
2023/12/08 09:38:30;;;;;;;5.72;2.10;;;;;;;24.33;34.83;98764.25;4986969;28;20053;-45
2023/12/08 09:40:55;;;;;;;10.00;2.45;;;;;;;24.44;34.89;98765.41;4989134;28;20034;-42
2023/12/08 09:43:46;;;;;;;5.38;2.40;;;;;;;24.48;34.68;98774.19;4996082;28;20025;-45
2023/12/08 09:46:12;;;;;;;5.50;2.13;;;;;;;24.39;34.91;98770.44;5000036;28;20033;-46
2023/12/08 09:48:37;;;;;;;6.35;2.30;;;;;;;24.36;35.04;98771.50;4992552;28;20029;-46
2023/12/08 09:51:03;;;;;;;5.40;2.50;;;;;;;24.36;35.12;98768.00;4978387;28;20655;-45
2023/12/08 09:53:28;;;;;;;7.00;2.38;;;;;;;24.47;35.48;98767.91;4989653;28;20030;-43
2023/12/08 09:55:54;;;;;;;5.72;2.50;;;;;;;24.45;35.26;98767.66;4974578;28;20032;-41
2023/12/08 09:58:19;;;;;;;5.25;2.40;;;;;;;24.47;35.14;98772.69;4997221;28;20026;-41
2023/12/08 10:00:44;;;;;;;6.28;2.63;;;;;;;24.26;34.37;98762.00;4980694;28;20025;-41
2023/12/08 10:03:10;;;;;;;5.60;2.50;;;;;;;24.21;34.82;98768.28;4975900;28;20393;-41
2023/12/08 10:05:36;;;;;;;5.28;2.33;;;;;;;24.28;34.69;98765.00;4992926;28;20018;-41
2023/12/08 10:08:01;;;;;;;6.47;2.42;;;;;;;24.28;34.53;98758.75;4992160;28;20027;-44
2023/12/08 10:10:26;;;;;;;6.57;2.55;;;;;;;24.21;35.13;98760.00;4990864;28;20738;-46
2023/12/08 10:12:52;;;;;;;6.72;2.60;;;;;;;23.83;35.81;98756.16;4994632;28;20044;-47
2023/12/08 10:15:18;;;;;;;6.70;2.58;;;;;;;23.69;36.25;98752.47;4990774;28;20026;-47
2023/12/08 10:17:48;;;;;;;8.63;2.80;;;;;;;23.69;36.25;98751.72;4988344;28;20034;-48
2023/12/08 10:20:14;;;;;;;5.75;2.30;;;;;;;23.64;36.44;98739.44;4993714;28;20061;-48
2023/12/08 10:22:53;;;;;;;8.48;2.50;;;;;;;23.64;36.55;98744.19;4993549;28;20038;-47
2023/12/08 10:25:19;;;;;;;6.93;2.47;;;;;;;23.74;36.44;98739.19;4991007;28;20447;-44
2023/12/08 10:27:46;;;;;;;6.57;2.75;;;;;;;23.85;36.32;98741.88;4989893;28;20069;-46
2023/12/08 10:30:12;;;;;;;4.85;2.40;;;;;;;23.97;36.04;98743.34;4989687;28;20031;-45
2023/12/08 10:32:37;;;;;;;5.43;2.40;;;;;;;24.00;35.90;98739.53;4991842;28;20393;-44
2023/12/08 10:35:03;;;;;;;5.70;2.40;;;;;;;24.05;35.64;98733.25;4995862;28;20021;-44
2023/12/08 10:37:28;;;;;;;4.78;2.42;;;;;;;24.06;35.74;98743.03;5001177;28;20034;-46
2023/12/08 10:39:54;;;;;;;5.82;2.60;;;;;;;24.08;35.60;98732.25;4989527;28;20049;-45
2023/12/08 10:42:19;;;;;;;5.63;2.47;;;;;;;24.08;35.68;98729.50;4971862;28;20026;-45
2023/12/08 10:44:48;;;;;;;4.93;2.15;;;;;;;24.10;35.80;98732.50;4993230;28;20417;-44
2023/12/08 10:47:14;;;;;;;7.20;2.60;;;;;;;24.08;35.73;98742.53;4988462;28;20022;-45
2023/12/08 10:49:39;;;;;;;6.47;2.47;;;;;;;24.08;35.74;98737.75;4992236;28;20029;-45
2023/12/08 10:52:05;;;;;;;5.45;2.67;;;;;;;24.09;35.74;98733.75;4989944;28;20030;-45
2023/12/08 10:54:31;;;;;;;5.70;2.47;;;;;;;24.03;35.99;98738.53;4988072;28;20022;-46
2023/12/08 10:56:56;;;;;;;5.30;2.65;;;;;;;24.08;35.92;98742.53;3262856;28;10021710;-44
2023/12/08 10:59:24;;;;;;;5.70;2.55;;;;;;;24.06;35.98;98745.78;3936644;28;10000432;-45
2023/12/08 11:01:49;;;;;;;5.20;2.70;;;;;;;23.97;35.94;98738.59;4986356;28;20105;-46
2023/12/08 11:04:19;;;;;;;4.72;2.60;;;;;;;24.02;36.16;98745.31;4986416;28;20026;-47
2023/12/08 11:06:48;;;;;;;4.63;2.40;;;;;;;24.06;36.28;98751.31;4964978;28;20378;-48
2023/12/08 11:09:15;;;;;;;7.15;2.63;;;;;;;24.10;36.26;98742.78;4988014;28;20699;-48
2023/12/08 11:11:44;;;;;;;8.47;4.83;;;;;;;24.10;36.40;98740.78;4986399;28;20449;-44
2023/12/08 11:14:17;;;;;;;14.70;10.48;;;;;;;24.14;36.45;98746.03;4985420;28;20340;-47
2023/12/08 11:16:55;;;;;;;13.10;9.52;;;;;;;24.08;36.46;98748.78;4968497;28;20033;-48
2023/12/08 11:19:21;;;;;;;12.77;9.85;;;;;;;24.14;36.39;98746.78;4985350;28;20040;-48
2023/12/08 11:21:46;;;;;;;17.58;14.45;;;;;;;24.18;36.42;98743.75;4987128;28;20056;-46
2023/12/08 11:24:11;;;;;;;16.35;13.48;;;;;;;24.16;36.48;98757.28;4983967;28;20019;-46
2023/12/08 11:27:08;;;;;;;16.48;13.07;;;;;;;24.24;36.25;98747.97;4641448;28;10000027;-49
2023/12/08 11:29:50;;;;;;;16.58;13.30;;;;;;;24.03;36.43;98742.03;4981272;28;20113;-47
2023/12/08 11:32:20;;;;;;;16.83;13.57;;;;;;;24.12;36.51;98748.53;4984125;28;20030;-46
2023/12/08 11:35:02;;;;;;;16.77;14.05;;;;;;;24.18;36.57;98752.75;4973978;28;20485;-44
2023/12/08 11:37:32;;;;;;;17.08;14.50;;;;;;;24.18;36.62;98754.78;4641609;28;9999769;-49
2023/12/08 11:40:10;;;;;;;17.77;14.00;;;;;;;24.20;36.55;98761.25;4986530;28;20033;-49
2023/12/08 11:42:36;;;;;;;19.08;13.68;;;;;;;24.22;36.75;98755.22;4643163;28;10000668;-45
2023/12/08 11:45:01;;;;;;;18.13;14.40;;;;;;;24.22;36.59;98758.00;4988458;28;21246;-44
2023/12/08 11:47:27;;;;;;;20.25;16.15;;;;;;;24.21;36.53;98748.97;4988056;28;20703;-47
2023/12/08 11:49:54;;;;;;;28.55;24.10;;;;;;;24.18;36.66;98752.75;4973104;28;20026;-45